Rosa, LA (71345)

11:51 AM CDT on May 05, 2015 (GMT -0500)
Evangeline Sub. | | Change Station
CLOSE
Current Station
Personal Weather Station
Location: Opelousas, LA
Elevation: 82 ft
Nearby Weather Stations

Elev 82 ft 30.58 °N, 92.08 °W | Updated 4 minutes ago

Mostly Cloudy
Mostly Cloudy
83.3 °F
Feels Like 87 °F
N
5.8
Wind Variable Wind from SSE

Today
High -- | Low -- °F
--% Chance of Precip.
Yesterday
High -- | Low -- °F
Precip. -- in
6:20 AM 7:49 PM
Full, 97% visible
Pressure 30.15 in
Visibility 10.0 miles
Clouds Mostly Cloudy 3500 ft
Heat Index 87 °F
Dew Point 68 °F
Humidity 61%
Rainfall 0.00 in
Snow Depth Not available.
UV 6 out of 12
Pollen 6.50 out of 12
Air Quality Not available.
Flu Activity Sporadic
METAR KOPL 051635Z AUTO 15014G17KT 10SM BKN035 27/18 A3015 RMK AO2 T02660180

More Conditions Fewer Conditions

Pressure 30.15 in
Visibility 10.0 miles
Clouds Mostly Cloudy 3500 ft
Heat Index 87 °F
Dew Point 68 °F
Humidity 61%
Rainfall 0.00 in
Snow Depth Not available.
UV 6 out of 12
Pollen 6.50 out of 12
Air Quality Not available.
Flu Activity Sporadic
METAR KOPL 051635Z AUTO 15014G17KT 10SM BKN035 27/18 A3015 RMK AO2 T02660180

More Conditions Fewer Conditions

10-Day Weather Forecast

Almanac

Astronomy

May. 05, 2015 Rise Set
Actual Time
Civil Twilight
Nautical Twilight
Astronomical Twilight
Moon
Length of Visible Light
Length of Day
Tomorrow will be .
, % of the Moon is Illuminated

Today's Extremes

State Highs State Lows

Community

WunderPhotos

Upload Photos

1,818,937 photos uploaded!

WunderBlogs® & News

Nearby

Air Quality

  Air Quality AQ Index Pollutant
Not available.

Snow Depth

Station Depth Elevation

Earthquake Activity

City Distance Mag. Time & Date
Minimum magnitude displayed is 2.5.

Coastal Water Temperatures

Place Temperature

Stations

Nearby Weather Stations

Station Location Temp. Windchill Dew Point Humidity Wind Precip. Elev Updated Type